sensor_id;sensor_type;location;lat;lon;timestamp;temperature;humidity
71942;DHT22;59997;53.300;-6.260;2023-02-12T00:01:07;8.17;74.95
71942;DHT22;59997;53.300;-6.260;2023-02-12T00:03:32;8.11;75.19
71942;DHT22;59997;53.300;-6.260;2023-02-12T00:06:00;8.09;75.37
71942;DHT22;59997;53.300;-6.260;2023-02-12T00:08:27;8.07;75.53
71942;DHT22;59997;53.300;-6.260;2023-02-12T00:10:53;8.06;75.41
71942;DHT22;59997;53.300;-6.260;2023-02-12T00:13:19;8.10;74.52
71942;DHT22;59997;53.300;-6.260;2023-02-12T00:15:44;8.09;74.71
71942;DHT22;59997;53.300;-6.260;2023-02-12T00:18:10;8.04;74.65
71942;DHT22;59997;53.300;-6.260;2023-02-12T00:20:37;8.07;74.08
71942;DHT22;59997;53.300;-6.260;2023-02-12T00:23:04;8.11;73.33
71942;DHT22;59997;53.300;-6.260;2023-02-12T00:25:31;8.14;73.24
71942;DHT22;59997;53.300;-6.260;2023-02-12T00:27:56;8.19;73.30
71942;DHT22;59997;53.300;-6.260;2023-02-12T00:30:22;8.35;72.34
71942;DHT22;59997;53.300;-6.260;2023-02-12T00:32:47;8.44;72.57
71942;DHT22;59997;53.300;-6.260;2023-02-12T00:35:14;8.37;72.34
71942;DHT22;59997;53.300;-6.260;2023-02-12T00:37:40;8.37;72.57
71942;DHT22;59997;53.300;-6.260;2023-02-12T00:40:09;8.40;72.29
71942;DHT22;59997;53.300;-6.260;2023-02-12T00:42:34;8.48;72.12
71942;DHT22;59997;53.300;-6.260;2023-02-12T00:45:00;8.54;72.01
71942;DHT22;59997;53.300;-6.260;2023-02-12T00:47:25;8.54;72.20
71942;DHT22;59997;53.300;-6.260;2023-02-12T00:49:51;8.54;71.57
71942;DHT22;59997;53.300;-6.260;2023-02-12T00:52:16;8.55;71.28
71942;DHT22;59997;53.300;-6.260;2023-02-12T00:54:42;8.54;71.87
71942;DHT22;59997;53.300;-6.260;2023-02-12T00:57:07;8.58;71.27
71942;DHT22;59997;53.300;-6.260;2023-02-12T00:59:33;8.61;70.95
71942;DHT22;59997;53.300;-6.260;2023-02-12T01:02:02;8.70;70.16
71942;DHT22;59997;53.300;-6.260;2023-02-12T01:04:28;8.68;70.88
71942;DHT22;59997;53.300;-6.260;2023-02-12T01:06:53;8.68;70.56
71942;DHT22;59997;53.300;-6.260;2023-02-12T01:09:19;8.66;71.08
71942;DHT22;59997;53.300;-6.260;2023-02-12T01:11:44;8.68;70.62
71942;DHT22;59997;53.300;-6.260;2023-02-12T01:14:10;8.69;70.22
71942;DHT22;59997;53.300;-6.260;2023-02-12T01:16:36;8.61;70.92
71942;DHT22;59997;53.300;-6.260;2023-02-12T01:19:03;8.72;70.61
71942;DHT22;59997;53.300;-6.260;2023-02-12T01:21:31;8.73;70.56
71942;DHT22;59997;53.300;-6.260;2023-02-12T01:23:57;8.80;70.29
71942;DHT22;59997;53.300;-6.260;2023-02-12T01:26:23;8.62;71.18
71942;DHT22;59997;53.300;-6.260;2023-02-12T01:28:51;8.63;70.89
71942;DHT22;59997;53.300;-6.260;2023-02-12T01:31:20;8.46;71.09
71942;DHT22;59997;53.300;-6.260;2023-02-12T01:33:50;8.34;72.41
71942;DHT22;59997;53.300;-6.260;2023-02-12T01:36:16;8.31;72.59
71942;DHT22;59997;53.300;-6.260;2023-02-12T01:38:42;8.21;72.72
71942;DHT22;59997;53.300;-6.260;2023-02-12T01:41:15;8.10;73.11
71942;DHT22;59997;53.300;-6.260;2023-02-12T01:43:42;8.00;73.47
71942;DHT22;59997;53.300;-6.260;2023-02-12T01:46:08;7.93;74.30
71942;DHT22;59997;53.300;-6.260;2023-02-12T01:48:38;7.94;74.25
71942;DHT22;59997;53.300;-6.260;2023-02-12T01:51:05;7.93;73.99
71942;DHT22;59997;53.300;-6.260;2023-02-12T01:53:37;7.94;74.09
71942;DHT22;59997;53.300;-6.260;2023-02-12T01:56:05;7.89;74.60
71942;DHT22;59997;53.300;-6.260;2023-02-12T01:58:35;7.87;74.78
71942;DHT22;59997;53.300;-6.260;2023-02-12T02:01:04;7.83;75.02
71942;DHT22;59997;53.300;-6.260;2023-02-12T02:03:31;7.87;74.87
71942;DHT22;59997;53.300;-6.260;2023-02-12T02:06:05;8.00;74.85
71942;DHT22;59997;53.300;-6.260;2023-02-12T02:08:33;7.99;75.00
71942;DHT22;59997;53.300;-6.260;2023-02-12T02:10:58;7.99;74.65
71942;DHT22;59997;53.300;-6.260;2023-02-12T02:13:24;8.11;74.36
71942;DHT22;59997;53.300;-6.260;2023-02-12T02:16:19;8.13;73.90
71942;DHT22;59997;53.300;-6.260;2023-02-12T02:18:55;8.35;72.82
71942;DHT22;59997;53.300;-6.260;2023-02-12T02:21:45;8.49;73.57
71942;DHT22;59997;53.300;-6.260;2023-02-12T02:24:51;8.35;74.43
71942;DHT22;59997;53.300;-6.260;2023-02-12T02:28:05;8.42;73.03
71942;DHT22;59997;53.300;-6.260;2023-02-12T02:30:56;8.40;73.43
71942;DHT22;59997;53.300;-6.260;2023-02-12T02:33:50;8.40;73.33
71942;DHT22;59997;53.300;-6.260;2023-02-12T02:39:22;8.48;73.15
71942;DHT22;59997;53.300;-6.260;2023-02-12T02:41:55;8.48;72.65
71942;DHT22;59997;53.300;-6.260;2023-02-12T02:44:38;8.44;73.16
71942;DHT22;59997;53.300;-6.260;2023-02-12T02:47:09;8.38;73.14
71942;DHT22;59997;53.300;-6.260;2023-02-12T02:50:03;8.49;72.30
71942;DHT22;59997;53.300;-6.260;2023-02-12T02:52:36;8.46;72.86
71942;DHT22;59997;53.300;-6.260;2023-02-12T02:55:07;8.40;73.60
71942;DHT22;59997;53.300;-6.260;2023-02-12T03:00:38;8.54;72.78
71942;DHT22;59997;53.300;-6.260;2023-02-12T03:05:48;8.56;72.73
71942;DHT22;59997;53.300;-6.260;2023-02-12T03:08:19;8.63;72.70
71942;DHT22;59997;53.300;-6.260;2023-02-12T03:10:57;8.59;72.97
71942;DHT22;59997;53.300;-6.260;2023-02-12T03:13:32;8.54;73.19
71942;DHT22;59997;53.300;-6.260;2023-02-12T03:16:31;8.48;73.02
71942;DHT22;59997;53.300;-6.260;2023-02-12T03:19:16;8.45;74.15
71942;DHT22;59997;53.300;-6.260;2023-02-12T03:21:50;8.35;73.91
71942;DHT22;59997;53.300;-6.260;2023-02-12T03:29:39;8.37;73.95
71942;DHT22;59997;53.300;-6.260;2023-02-12T03:32:29;8.41;73.89
71942;DHT22;59997;53.300;-6.260;2023-02-12T03:37:35;8.35;74.08
71942;DHT22;59997;53.300;-6.260;2023-02-12T03:40:19;8.49;73.54
71942;DHT22;59997;53.300;-6.260;2023-02-12T03:49:01;8.48;73.92
71942;DHT22;59997;53.300;-6.260;2023-02-12T03:51:38;8.35;74.45
71942;DHT22;59997;53.300;-6.260;2023-02-12T03:54:08;8.24;74.95
71942;DHT22;59997;53.300;-6.260;2023-02-12T03:56:43;8.16;75.47
71942;DHT22;59997;53.300;-6.260;2023-02-12T03:59:09;8.10;75.54
71942;DHT22;59997;53.300;-6.260;2023-02-12T04:01:35;8.13;75.28
71942;DHT22;59997;53.300;-6.260;2023-02-12T04:04:07;8.11;75.32
71942;DHT22;59997;53.300;-6.260;2023-02-12T04:06:33;8.16;75.52
71942;DHT22;59997;53.300;-6.260;2023-02-12T04:09:06;8.21;75.25
71942;DHT22;59997;53.300;-6.260;2023-02-12T04:11:51;8.23;75.42
71942;DHT22;59997;53.300;-6.260;2023-02-12T04:14:43;8.13;75.60
71942;DHT22;59997;53.300;-6.260;2023-02-12T04:23:25;8.24;75.26
71942;DHT22;59997;53.300;-6.260;2023-02-12T04:34:23;7.87;76.50
71942;DHT22;59997;53.300;-6.260;2023-02-12T04:37:11;7.87;76.77
71942;DHT22;59997;53.300;-6.260;2023-02-12T04:39:43;7.83;76.99
71942;DHT22;59997;53.300;-6.260;2023-02-12T04:42:09;7.90;76.79
71942;DHT22;59997;53.300;-6.260;2023-02-12T04:44:41;7.93;77.05
71942;DHT22;59997;53.300;-6.260;2023-02-12T04:47:10;7.87;77.31
71942;DHT22;59997;53.300;-6.260;2023-02-12T04:49:37;7.86;77.50
71942;DHT22;59997;53.300;-6.260;2023-02-12T04:52:02;7.75;77.59
71942;DHT22;59997;53.300;-6.260;2023-02-12T04:54:28;7.74;78.00
71942;DHT22;59997;53.300;-6.260;2023-02-12T04:56:53;7.68;78.40
71942;DHT22;59997;53.300;-6.260;2023-02-12T04:59:19;7.58;79.16
71942;DHT22;59997;53.300;-6.260;2023-02-12T05:01:45;7.50;79.63
71942;DHT22;59997;53.300;-6.260;2023-02-12T05:04:13;7.38;79.70
71942;DHT22;59997;53.300;-6.260;2023-02-12T05:06:39;7.30;80.07
71942;DHT22;59997;53.300;-6.260;2023-02-12T05:09:07;7.23;80.29
71942;DHT22;59997;53.300;-6.260;2023-02-12T05:11:33;7.26;80.30
71942;DHT22;59997;53.300;-6.260;2023-02-12T05:14:00;7.15;80.57
71942;DHT22;59997;53.300;-6.260;2023-02-12T05:16:25;6.99;80.94
71942;DHT22;59997;53.300;-6.260;2023-02-12T05:18:51;6.88;81.10
71942;DHT22;59997;53.300;-6.260;2023-02-12T05:21:16;6.75;81.14
71942;DHT22;59997;53.300;-6.260;2023-02-12T05:23:42;6.63;81.65
71942;DHT22;59997;53.300;-6.260;2023-02-12T05:26:19;6.53;82.10
71942;DHT22;59997;53.300;-6.260;2023-02-12T05:28:46;6.41;82.08
71942;DHT22;59997;53.300;-6.260;2023-02-12T05:31:16;6.32;82.16
71942;DHT22;59997;53.300;-6.260;2023-02-12T05:33:45;6.23;82.54
71942;DHT22;59997;53.300;-6.260;2023-02-12T05:36:15;6.18;82.79
71942;DHT22;59997;53.300;-6.260;2023-02-12T05:38:41;6.18;82.93
71942;DHT22;59997;53.300;-6.260;2023-02-12T05:41:18;6.13;83.23
71942;DHT22;59997;53.300;-6.260;2023-02-12T05:43:44;6.09;83.02
71942;DHT22;59997;53.300;-6.260;2023-02-12T05:46:10;6.15;83.11
71942;DHT22;59997;53.300;-6.260;2023-02-12T05:48:37;6.43;82.56
71942;DHT22;59997;53.300;-6.260;2023-02-12T05:51:08;6.78;82.33
71942;DHT22;59997;53.300;-6.260;2023-02-12T05:53:34;6.91;81.93
71942;DHT22;59997;53.300;-6.260;2023-02-12T05:56:27;6.91;82.04
71942;DHT22;59997;53.300;-6.260;2023-02-12T05:58:57;6.85;82.13
71942;DHT22;59997;53.300;-6.260;2023-02-12T06:01:26;6.77;82.05
71942;DHT22;59997;53.300;-6.260;2023-02-12T06:03:52;6.67;82.61
71942;DHT22;59997;53.300;-6.260;2023-02-12T06:06:18;6.64;82.62
71942;DHT22;59997;53.300;-6.260;2023-02-12T06:08:47;6.58;82.86
71942;DHT22;59997;53.300;-6.260;2023-02-12T06:11:13;6.54;82.83
71942;DHT22;59997;53.300;-6.260;2023-02-12T06:13:39;6.55;83.02
71942;DHT22;59997;53.300;-6.260;2023-02-12T06:16:04;6.60;83.02
71942;DHT22;59997;53.300;-6.260;2023-02-12T06:18:30;6.63;83.34
71942;DHT22;59997;53.300;-6.260;2023-02-12T06:20:56;6.67;82.83
71942;DHT22;59997;53.300;-6.260;2023-02-12T06:23:22;6.68;82.58
71942;DHT22;59997;53.300;-6.260;2023-02-12T06:25:49;6.64;82.53
71942;DHT22;59997;53.300;-6.260;2023-02-12T06:28:15;6.64;82.52
71942;DHT22;59997;53.300;-6.260;2023-02-12T06:30:41;6.65;82.81
71942;DHT22;59997;53.300;-6.260;2023-02-12T06:33:07;6.63;82.55
71942;DHT22;59997;53.300;-6.260;2023-02-12T06:35:37;6.77;82.29
71942;DHT22;59997;53.300;-6.260;2023-02-12T06:38:04;6.70;82.47
71942;DHT22;59997;53.300;-6.260;2023-02-12T06:40:30;6.64;82.80
71942;DHT22;59997;53.300;-6.260;2023-02-12T06:42:55;6.68;82.50
71942;DHT22;59997;53.300;-6.260;2023-02-12T06:45:21;6.71;82.40
71942;DHT22;59997;53.300;-6.260;2023-02-12T06:47:46;6.75;82.28
71942;DHT22;59997;53.300;-6.260;2023-02-12T06:50:12;6.87;82.35
71942;DHT22;59997;53.300;-6.260;2023-02-12T06:52:37;6.88;82.44
71942;DHT22;59997;53.300;-6.260;2023-02-12T06:55:06;6.89;82.71
71942;DHT22;59997;53.300;-6.260;2023-02-12T06:57:33;6.99;82.24
71942;DHT22;59997;53.300;-6.260;2023-02-12T07:00:01;7.09;81.77
71942;DHT22;59997;53.300;-6.260;2023-02-12T07:02:27;7.28;80.89
71942;DHT22;59997;53.300;-6.260;2023-02-12T07:04:52;7.52;80.10
71942;DHT22;59997;53.300;-6.260;2023-02-12T07:07:18;7.68;79.53
71942;DHT22;59997;53.300;-6.260;2023-02-12T07:09:43;7.85;79.20
71942;DHT22;59997;53.300;-6.260;2023-02-12T07:12:09;8.00;78.55
71942;DHT22;59997;53.300;-6.260;2023-02-12T07:14:34;8.09;78.33
71942;DHT22;59997;53.300;-6.260;2023-02-12T07:17:00;8.21;78.05
71942;DHT22;59997;53.300;-6.260;2023-02-12T07:19:29;8.26;77.69
71942;DHT22;59997;53.300;-6.260;2023-02-12T07:21:56;8.26;77.93
71942;DHT22;59997;53.300;-6.260;2023-02-12T07:24:21;8.21;78.06
71942;DHT22;59997;53.300;-6.260;2023-02-12T07:26:47;8.19;78.31
71942;DHT22;59997;53.300;-6.260;2023-02-12T07:29:12;8.17;78.42
71942;DHT22;59997;53.300;-6.260;2023-02-12T07:31:38;8.21;78.30
71942;DHT22;59997;53.300;-6.260;2023-02-12T07:34:04;8.13;78.30
71942;DHT22;59997;53.300;-6.260;2023-02-12T07:36:32;8.14;78.27
71942;DHT22;59997;53.300;-6.260;2023-02-12T07:38:58;8.13;78.49
71942;DHT22;59997;53.300;-6.260;2023-02-12T07:41:25;8.09;78.58
71942;DHT22;59997;53.300;-6.260;2023-02-12T07:43:56;8.07;78.80
71942;DHT22;59997;53.300;-6.260;2023-02-12T07:46:29;8.03;79.22
71942;DHT22;59997;53.300;-6.260;2023-02-12T07:48:56;8.03;79.15
71942;DHT22;59997;53.300;-6.260;2023-02-12T07:51:22;8.10;78.92
71942;DHT22;59997;53.300;-6.260;2023-02-12T07:53:49;8.00;79.46
71942;DHT22;59997;53.300;-6.260;2023-02-12T07:56:18;7.99;79.59
71942;DHT22;59997;53.300;-6.260;2023-02-12T07:58:45;8.00;79.45
71942;DHT22;59997;53.300;-6.260;2023-02-12T08:03:44;7.94;79.65
71942;DHT22;59997;53.300;-6.260;2023-02-12T08:06:23;8.06;79.51
71942;DHT22;59997;53.300;-6.260;2023-02-12T08:08:52;7.99;79.57
71942;DHT22;59997;53.300;-6.260;2023-02-12T08:11:19;7.94;79.71
71942;DHT22;59997;53.300;-6.260;2023-02-12T08:13:45;7.93;79.97
71942;DHT22;59997;53.300;-6.260;2023-02-12T08:16:13;7.86;80.14
71942;DHT22;59997;53.300;-6.260;2023-02-12T08:18:40;7.81;80.59
71942;DHT22;59997;53.300;-6.260;2023-02-12T08:21:26;7.68;81.12
71942;DHT22;59997;53.300;-6.260;2023-02-12T08:23:56;7.67;81.41
71942;DHT22;59997;53.300;-6.260;2023-02-12T08:26:30;7.79;80.99
71942;DHT22;59997;53.300;-6.260;2023-02-12T08:29:12;7.83;80.82
71942;DHT22;59997;53.300;-6.260;2023-02-12T08:31:41;7.96;80.54
71942;DHT22;59997;53.300;-6.260;2023-02-12T08:34:19;7.96;80.82
71942;DHT22;59997;53.300;-6.260;2023-02-12T08:36:45;7.92;80.69
71942;DHT22;59997;53.300;-6.260;2023-02-12T08:39:12;7.96;80.92
71942;DHT22;59997;53.300;-6.260;2023-02-12T08:41:37;7.97;80.50
71942;DHT22;59997;53.300;-6.260;2023-02-12T08:44:04;8.10;80.20
71942;DHT22;59997;53.300;-6.260;2023-02-12T08:46:35;8.20;80.34
71942;DHT22;59997;53.300;-6.260;2023-02-12T08:49:07;8.23;80.10
71942;DHT22;59997;53.300;-6.260;2023-02-12T08:51:38;8.19;80.67
71942;DHT22;59997;53.300;-6.260;2023-02-12T08:54:06;8.30;79.71
71942;DHT22;59997;53.300;-6.260;2023-02-12T08:56:34;8.27;79.52
71942;DHT22;59997;53.300;-6.260;2023-02-12T08:59:01;8.35;79.37
71942;DHT22;59997;53.300;-6.260;2023-02-12T09:01:32;8.46;78.85
71942;DHT22;59997;53.300;-6.260;2023-02-12T09:03:58;8.48;79.07
71942;DHT22;59997;53.300;-6.260;2023-02-12T09:06:25;8.51;78.90
71942;DHT22;59997;53.300;-6.260;2023-02-12T09:08:55;8.55;78.22
71942;DHT22;59997;53.300;-6.260;2023-02-12T09:11:23;8.54;78.44
71942;DHT22;59997;53.300;-6.260;2023-02-12T09:13:52;8.59;78.24
71942;DHT22;59997;53.300;-6.260;2023-02-12T09:16:17;8.65;78.48
71942;DHT22;59997;53.300;-6.260;2023-02-12T09:18:43;8.69;78.61
71942;DHT22;59997;53.300;-6.260;2023-02-12T09:21:13;8.76;78.46
71942;DHT22;59997;53.300;-6.260;2023-02-12T09:23:41;8.72;78.07
71942;DHT22;59997;53.300;-6.260;2023-02-12T09:26:10;8.72;78.66
71942;DHT22;59997;53.300;-6.260;2023-02-12T09:28:36;8.75;78.34
71942;DHT22;59997;53.300;-6.260;2023-02-12T09:31:10;8.83;77.62
71942;DHT22;59997;53.300;-6.260;2023-02-12T09:33:37;8.90;76.95
71942;DHT22;59997;53.300;-6.260;2023-02-12T09:36:06;8.97;77.25
71942;DHT22;59997;53.300;-6.260;2023-02-12T09:38:33;8.96;78.62
71942;DHT22;59997;53.300;-6.260;2023-02-12T09:41:24;9.01;78.12
71942;DHT22;59997;53.300;-6.260;2023-02-12T09:52:58;9.39;75.37
71942;DHT22;59997;53.300;-6.260;2023-02-12T09:55:27;9.46;73.87
71942;DHT22;59997;53.300;-6.260;2023-02-12T09:57:53;9.59;74.41
71942;DHT22;59997;53.300;-6.260;2023-02-12T10:00:27;9.72;73.87
71942;DHT22;59997;53.300;-6.260;2023-02-12T10:02:55;10.09;72.65
71942;DHT22;59997;53.300;-6.260;2023-02-12T10:05:26;10.31;71.85
71942;DHT22;59997;53.300;-6.260;2023-02-12T10:08:03;10.38;71.33
71942;DHT22;59997;53.300;-6.260;2023-02-12T10:16:01;12.58;66.02
71942;DHT22;59997;53.300;-6.260;2023-02-12T10:27:15;14.78;57.61
71942;DHT22;59997;53.300;-6.260;2023-02-12T10:29:41;14.80;54.54
71942;DHT22;59997;53.300;-6.260;2023-02-12T10:34:44;14.05;56.79
71942;DHT22;59997;53.300;-6.260;2023-02-12T10:37:22;13.37;60.93
71942;DHT22;59997;53.300;-6.260;2023-02-12T10:39:55;12.93;60.90
71942;DHT22;59997;53.300;-6.260;2023-02-12T10:42:36;12.98;61.01
71942;DHT22;59997;53.300;-6.260;2023-02-12T10:45:03;12.22;62.26
71942;DHT22;59997;53.300;-6.260;2023-02-12T10:47:29;11.73;64.52
71942;DHT22;59997;53.300;-6.260;2023-02-12T10:49:59;11.44;66.45
71942;DHT22;59997;53.300;-6.260;2023-02-12T10:54:54;11.23;68.04
71942;DHT22;59997;53.300;-6.260;2023-02-12T10:57:25;11.49;66.74
71942;DHT22;59997;53.300;-6.260;2023-02-12T10:59:55;12.29;64.07
71942;DHT22;59997;53.300;-6.260;2023-02-12T11:02:33;12.47;61.41
71942;DHT22;59997;53.300;-6.260;2023-02-12T11:05:00;12.21;63.31
71942;DHT22;59997;53.300;-6.260;2023-02-12T11:07:49;12.26;62.72
71942;DHT22;59997;53.300;-6.260;2023-02-12T11:10:20;13.05;59.77
71942;DHT22;59997;53.300;-6.260;2023-02-12T11:12:49;12.81;59.02
71942;DHT22;59997;53.300;-6.260;2023-02-12T11:15:25;12.04;61.95
71942;DHT22;59997;53.300;-6.260;2023-02-12T11:18:02;12.21;60.76
71942;DHT22;59997;53.300;-6.260;2023-02-12T11:20:32;11.67;62.79
71942;DHT22;59997;53.300;-6.260;2023-02-12T11:23:03;11.23;64.32
71942;DHT22;59997;53.300;-6.260;2023-02-12T11:25:36;10.93;65.28
71942;DHT22;59997;53.300;-6.260;2023-02-12T11:28:14;10.74;66.27
71942;DHT22;59997;53.300;-6.260;2023-02-12T11:31:17;10.38;67.92
71942;DHT22;59997;53.300;-6.260;2023-02-12T11:33:44;10.29;67.73
71942;DHT22;59997;53.300;-6.260;2023-02-12T11:36:19;10.49;67.54
71942;DHT22;59997;53.300;-6.260;2023-02-12T11:38:56;10.48;68.05
71942;DHT22;59997;53.300;-6.260;2023-02-12T11:41:34;10.41;66.84
71942;DHT22;59997;53.300;-6.260;2023-02-12T11:44:20;12.12;64.83
71942;DHT22;59997;53.300;-6.260;2023-02-12T11:46:49;12.85;61.23
71942;DHT22;59997;53.300;-6.260;2023-02-12T11:49:27;12.04;63.82
71942;DHT22;59997;53.300;-6.260;2023-02-12T11:51:55;13.12;61.14
71942;DHT22;59997;53.300;-6.260;2023-02-12T11:54:26;13.82;58.05
71942;DHT22;59997;53.300;-6.260;2023-02-12T11:56:52;13.10;59.74
71942;DHT22;59997;53.300;-6.260;2023-02-12T11:59:39;13.12;59.58
71942;DHT22;59997;53.300;-6.260;2023-02-12T12:02:21;13.77;59.54
71942;DHT22;59997;53.300;-6.260;2023-02-12T12:04:49;13.87;56.91
71942;DHT22;59997;53.300;-6.260;2023-02-12T12:07:37;13.26;57.83
71942;DHT22;59997;53.300;-6.260;2023-02-12T12:13:17;13.58;59.01
71942;DHT22;59997;53.300;-6.260;2023-02-12T12:15:51;13.61;58.31
71942;DHT22;59997;53.300;-6.260;2023-02-12T12:18:46;14.47;56.52
71942;DHT22;59997;53.300;-6.260;2023-02-12T12:26:59;14.68;54.10
71942;DHT22;59997;53.300;-6.260;2023-02-12T12:29:50;14.47;55.29
71942;DHT22;59997;53.300;-6.260;2023-02-12T12:32:19;14.28;54.09
71942;DHT22;59997;53.300;-6.260;2023-02-12T12:34:47;14.34;55.52
71942;DHT22;59997;53.300;-6.260;2023-02-12T12:37:33;14.71;55.51
71942;DHT22;59997;53.300;-6.260;2023-02-12T12:45:58;15.24;53.24
71942;DHT22;59997;53.300;-6.260;2023-02-12T12:54:54;14.95;53.07
71942;DHT22;59997;53.300;-6.260;2023-02-12T13:01:00;14.13;55.47
71942;DHT22;59997;53.300;-6.260;2023-02-12T13:03:41;13.64;54.68
71942;DHT22;59997;53.300;-6.260;2023-02-12T13:09:44;13.57;55.51
71942;DHT22;59997;53.300;-6.260;2023-02-12T13:12:37;12.92;59.47
71942;DHT22;59997;53.300;-6.260;2023-02-12T13:15:20;12.30;60.85
71942;DHT22;59997;53.300;-6.260;2023-02-12T13:24:11;12.87;62.33
71942;DHT22;59997;53.300;-6.260;2023-02-12T13:26:50;12.67;64.24
71942;DHT22;59997;53.300;-6.260;2023-02-12T13:29:44;11.69;63.11
71942;DHT22;59997;53.300;-6.260;2023-02-12T13:34:40;11.30;65.09
71942;DHT22;59997;53.300;-6.260;2023-02-12T13:37:13;11.52;64.96
71942;DHT22;59997;53.300;-6.260;2023-02-12T13:39:42;11.32;64.66
71942;DHT22;59997;53.300;-6.260;2023-02-12T13:43:28;11.01;66.06
71942;DHT22;59997;53.300;-6.260;2023-02-12T13:54:53;10.80;67.33
71942;DHT22;59997;53.300;-6.260;2023-02-12T13:56:54;10.49;67.72
71942;DHT22;59997;53.300;-6.260;2023-02-12T13:59:44;10.34;68.70
71942;DHT22;59997;53.300;-6.260;2023-02-12T14:04:59;10.25;68.52
71942;DHT22;59997;53.300;-6.260;2023-02-12T14:07:41;10.04;69.14
71942;DHT22;59997;53.300;-6.260;2023-02-12T14:10:14;9.94;69.69
71942;DHT22;59997;53.300;-6.260;2023-02-12T14:12:43;9.93;71.55
71942;DHT22;59997;53.300;-6.260;2023-02-12T14:15:31;9.93;70.70
71942;DHT22;59997;53.300;-6.260;2023-02-12T14:18:23;10.01;71.51
71942;DHT22;59997;53.300;-6.260;2023-02-12T14:23:46;10.01;70.92
71942;DHT22;59997;53.300;-6.260;2023-02-12T14:26:18;10.11;70.97
71942;DHT22;59997;53.300;-6.260;2023-02-12T14:29:05;10.25;70.98
71942;DHT22;59997;53.300;-6.260;2023-02-12T14:31:40;10.29;71.43
71942;DHT22;59997;53.300;-6.260;2023-02-12T14:36:38;10.28;70.43
71942;DHT22;59997;53.300;-6.260;2023-02-12T14:41:53;10.45;70.05
71942;DHT22;59997;53.300;-6.260;2023-02-12T14:47:14;10.55;70.37
71942;DHT22;59997;53.300;-6.260;2023-02-12T14:49:52;10.45;69.52
71942;DHT22;59997;53.300;-6.260;2023-02-12T14:52:28;10.34;70.32
71942;DHT22;59997;53.300;-6.260;2023-02-12T14:55:19;10.34;69.93
71942;DHT22;59997;53.300;-6.260;2023-02-12T14:57:46;10.34;70.10
71942;DHT22;59997;53.300;-6.260;2023-02-12T15:00:25;10.56;70.67
71942;DHT22;59997;53.300;-6.260;2023-02-12T15:03:00;10.63;70.19
71942;DHT22;59997;53.300;-6.260;2023-02-12T15:05:33;10.48;70.28
71942;DHT22;59997;53.300;-6.260;2023-02-12T15:08:16;10.34;70.16
71942;DHT22;59997;53.300;-6.260;2023-02-12T15:10:48;10.21;70.73
71942;DHT22;59997;53.300;-6.260;2023-02-12T15:16:06;10.12;71.44
71942;DHT22;59997;53.300;-6.260;2023-02-12T15:23:44;10.01;71.73
71942;DHT22;59997;53.300;-6.260;2023-02-12T15:26:13;10.01;72.60
71942;DHT22;59997;53.300;-6.260;2023-02-12T15:28:40;9.95;71.62
71942;DHT22;59997;53.300;-6.260;2023-02-12T15:31:07;9.86;71.59
71942;DHT22;59997;53.300;-6.260;2023-02-12T15:33:39;9.82;72.45
71942;DHT22;59997;53.300;-6.260;2023-02-12T15:36:10;9.69;72.71
71942;DHT22;59997;53.300;-6.260;2023-02-12T15:38:40;9.66;71.89
71942;DHT22;59997;53.300;-6.260;2023-02-12T15:41:07;9.62;73.41
71942;DHT22;59997;53.300;-6.260;2023-02-12T15:43:39;9.53;72.06
71942;DHT22;59997;53.300;-6.260;2023-02-12T15:46:06;9.46;72.04
71942;DHT22;59997;53.300;-6.260;2023-02-12T15:48:39;9.43;71.17
71942;DHT22;59997;53.300;-6.260;2023-02-12T15:53:51;9.30;71.55
71942;DHT22;59997;53.300;-6.260;2023-02-12T15:56:21;9.22;71.61
71942;DHT22;59997;53.300;-6.260;2023-02-12T15:58:51;9.13;71.82
71942;DHT22;59997;53.300;-6.260;2023-02-12T16:01:19;8.90;72.32
71942;DHT22;59997;53.300;-6.260;2023-02-12T16:03:56;8.66;73.15
71942;DHT22;59997;53.300;-6.260;2023-02-12T16:06:23;8.48;73.62
71942;DHT22;59997;53.300;-6.260;2023-02-12T16:08:59;8.49;73.72
71942;DHT22;59997;53.300;-6.260;2023-02-12T16:11:26;8.45;74.54
71942;DHT22;59997;53.300;-6.260;2023-02-12T16:14:04;8.44;74.25
71942;DHT22;59997;53.300;-6.260;2023-02-12T16:16:46;8.38;74.12
71942;DHT22;59997;53.300;-6.260;2023-02-12T16:19:28;8.34;74.30
71942;DHT22;59997;53.300;-6.260;2023-02-12T16:22:08;8.24;74.61
71942;DHT22;59997;53.300;-6.260;2023-02-12T16:24:58;8.14;75.03
71942;DHT22;59997;53.300;-6.260;2023-02-12T16:27:31;8.07;75.45
71942;DHT22;59997;53.300;-6.260;2023-02-12T16:30:02;8.02;75.75
71942;DHT22;59997;53.300;-6.260;2023-02-12T16:32:39;7.92;76.33
71942;DHT22;59997;53.300;-6.260;2023-02-12T16:42:30;7.41;77.63
71942;DHT22;59997;53.300;-6.260;2023-02-12T16:44:56;7.34;77.89
71942;DHT22;59997;53.300;-6.260;2023-02-12T16:47:23;7.17;78.40
71942;DHT22;59997;53.300;-6.260;2023-02-12T16:49:57;7.06;78.95
71942;DHT22;59997;53.300;-6.260;2023-02-12T16:52:36;6.92;79.37
71942;DHT22;59997;53.300;-6.260;2023-02-12T16:55:03;6.89;79.42
71942;DHT22;59997;53.300;-6.260;2023-02-12T16:57:28;6.93;79.33
71942;DHT22;59997;53.300;-6.260;2023-02-12T16:59:54;6.84;79.58
71942;DHT22;59997;53.300;-6.260;2023-02-12T17:02:20;6.91;79.17
71942;DHT22;59997;53.300;-6.260;2023-02-12T17:04:45;6.85;79.40
71942;DHT22;59997;53.300;-6.260;2023-02-12T17:07:21;6.65;79.74
71942;DHT22;59997;53.300;-6.260;2023-02-12T17:09:48;6.57;80.36
71942;DHT22;59997;53.300;-6.260;2023-02-12T17:12:14;6.54;80.64
71942;DHT22;59997;53.300;-6.260;2023-02-12T17:14:40;6.47;80.79
71942;DHT22;59997;53.300;-6.260;2023-02-12T17:17:05;6.48;81.22
71942;DHT22;59997;53.300;-6.260;2023-02-12T17:19:31;6.41;81.41
71942;DHT22;59997;53.300;-6.260;2023-02-12T17:21:57;6.46;81.68
71942;DHT22;59997;53.300;-6.260;2023-02-12T17:24:24;6.50;81.86
71942;DHT22;59997;53.300;-6.260;2023-02-12T17:26:51;6.64;81.81
71942;DHT22;59997;53.300;-6.260;2023-02-12T17:29:18;6.60;81.73
71942;DHT22;59997;53.300;-6.260;2023-02-12T17:31:45;6.63;81.64
71942;DHT22;59997;53.300;-6.260;2023-02-12T17:34:13;6.77;81.35
71942;DHT22;59997;53.300;-6.260;2023-02-12T17:36:41;6.78;81.39
71942;DHT22;59997;53.300;-6.260;2023-02-12T17:39:07;6.82;81.15
71942;DHT22;59997;53.300;-6.260;2023-02-12T17:41:34;6.96;80.60
71942;DHT22;59997;53.300;-6.260;2023-02-12T17:43:59;6.99;80.63
71942;DHT22;59997;53.300;-6.260;2023-02-12T17:46:27;7.00;80.49
71942;DHT22;59997;53.300;-6.260;2023-02-12T17:48:53;6.91;80.68
71942;DHT22;59997;53.300;-6.260;2023-02-12T17:51:19;7.02;80.50
71942;DHT22;59997;53.300;-6.260;2023-02-12T17:53:46;7.05;80.53
71942;DHT22;59997;53.300;-6.260;2023-02-12T17:56:17;7.03;80.45
71942;DHT22;59997;53.300;-6.260;2023-02-12T17:58:43;7.06;80.32
71942;DHT22;59997;53.300;-6.260;2023-02-12T18:01:11;7.07;80.28
71942;DHT22;59997;53.300;-6.260;2023-02-12T18:03:37;7.05;80.09
71942;DHT22;59997;53.300;-6.260;2023-02-12T18:06:04;6.98;80.30
71942;DHT22;59997;53.300;-6.260;2023-02-12T18:08:31;6.88;80.53
71942;DHT22;59997;53.300;-6.260;2023-02-12T18:11:01;6.88;80.40
71942;DHT22;59997;53.300;-6.260;2023-02-12T18:13:28;6.91;80.06
71942;DHT22;59997;53.300;-6.260;2023-02-12T18:15:54;6.78;79.90
71942;DHT22;59997;53.300;-6.260;2023-02-12T18:18:19;6.77;79.38